Time;durP1;ratioP1;P1;durP2;ratioP2;P2;SDS_P1;SDS_P2;PMS_P1;PMS_P2;Temp;Humidity;BMP_temperature;BMP_pressure;BME280_temperature;BME280_humidity;BME280_pressure;Samples;Min_cycle;Max_cycle;Signal;HPM_P1;HPM_P2
2021/04/30 00:01:43;;;;;;;7.27;4.80;;;13.90;69.10;;;;;;4991585;28;20026;-79
2021/04/30 00:04:09;;;;;;;6.47;4.13;;;13.90;69.20;;;;;;4994577;28;20390;-79
2021/04/30 00:06:35;;;;;;;7.33;3.80;;;13.90;69.20;;;;;;5010721;28;20030;-79
2021/04/30 00:09:00;;;;;;;6.07;3.23;;;13.90;69.00;;;;;;5006936;28;20152;-79
2021/04/30 00:11:26;;;;;;;4.83;3.33;;;13.90;68.80;;;;;;4994559;28;20038;-79
2021/04/30 00:13:52;;;;;;;4.47;3.83;;;13.90;68.60;;;;;;4994874;28;20026;-79
2021/04/30 00:16:18;;;;;;;5.80;4.37;;;13.90;68.40;;;;;;4994002;28;20438;-79
2021/04/30 00:18:43;;;;;;;8.07;4.33;;;13.90;68.60;;;;;;5011005;28;20459;-79
2021/04/30 00:21:09;;;;;;;4.87;4.37;;;13.80;68.50;;;;;;5011531;28;20014;-79
2021/04/30 00:23:35;;;;;;;7.17;4.90;;;13.80;68.70;;;;;;5007775;28;20514;-79
2021/04/30 00:26:03;;;;;;;4.70;3.07;;;13.80;68.90;;;;;;5011305;28;20109;-79
2021/04/30 00:28:29;;;;;;;6.17;3.60;;;13.80;68.70;;;;;;4994335;28;20121;-79
2021/04/30 00:30:57;;;;;;;4.27;3.10;;;13.80;68.60;;;;;;4994527;28;20137;-79
2021/04/30 00:33:23;;;;;;;8.07;3.23;;;13.80;68.40;;;;;;4992906;28;20060;-79
2021/04/30 00:35:50;;;;;;;5.03;3.57;;;13.80;68.40;;;;;;5012486;28;20493;-79
2021/04/30 00:38:16;;;;;;;8.20;3.83;;;13.80;68.50;;;;;;4993370;28;20501;-79
2021/04/30 00:40:42;;;;;;;5.10;3.93;;;13.70;68.80;;;;;;4994286;28;20026;-79
2021/04/30 00:43:09;;;;;;;4.07;3.00;;;13.70;68.80;;;;;;5010526;28;20849;-80
2021/04/30 00:45:36;;;;;;;4.00;2.03;;;13.70;68.80;;;;;;4995739;28;20133;-79
2021/04/30 00:48:02;;;;;;;4.23;1.80;;;13.70;68.60;;;;;;4996815;28;20455;-79
2021/04/30 00:50:29;;;;;;;2.40;1.57;;;13.70;68.30;;;;;;4994173;28;20117;-79
2021/04/30 00:52:55;;;;;;;4.47;1.80;;;13.60;68.10;;;;;;4997671;28;20038;-79
2021/04/30 00:55:22;;;;;;;3.83;1.37;;;13.60;67.90;;;;;;4998098;28;20505;-79
2021/04/30 00:57:55;;;;;;;2.63;1.30;;;13.60;67.90;;;;;;4998059;28;20422;-79
2021/04/30 01:00:22;;;;;;;5.87;1.30;;;13.50;67.70;;;;;;5002186;28;20698;-79
2021/04/30 01:02:48;;;;;;;2.80;1.40;;;13.50;68.20;;;;;;4995334;28;20018;-79
2021/04/30 01:05:15;;;;;;;2.43;1.20;;;13.50;67.50;;;;;;5010573;28;20037;-79
2021/04/30 01:07:41;;;;;;;5.77;1.60;;;13.50;67.70;;;;;;4997348;28;20034;-78
2021/04/30 01:10:08;;;;;;;3.73;1.70;;;13.50;67.90;;;;;;4992380;28;20501;-79
2021/04/30 01:12:35;;;;;;;5.33;2.10;;;13.50;67.80;;;;;;4997688;28;20041;-79
2021/04/30 01:15:01;;;;;;;5.43;1.80;;;13.50;67.80;;;;;;4997406;28;20026;-79
2021/04/30 01:17:27;;;;;;;1.73;1.33;;;13.40;68.00;;;;;;4997050;28;20084;-79
2021/04/30 01:19:58;;;;;;;3.73;1.77;;;13.40;68.20;;;;;;4994057;28;20032;-78
2021/04/30 01:22:38;;;;;;;4.63;1.80;;;13.30;68.30;;;;;;4990357;28;20044;-79
2021/04/30 01:25:07;;;;;;;3.67;1.80;;;13.30;68.50;;;;;;5004801;28;20022;-79
2021/04/30 01:27:33;;;;;;;3.67;1.60;;;13.20;68.40;;;;;;5014462;28;20026;-79
2021/04/30 01:29:58;;;;;;;4.90;1.87;;;13.20;68.50;;;;;;5007040;28;20080;-79
2021/04/30 01:32:24;;;;;;;3.23;1.97;;;13.20;68.70;;;;;;4982083;28;20602;-78
2021/04/30 01:34:50;;;;;;;3.67;1.83;;;13.20;68.80;;;;;;4986670;28;20025;-78
2021/04/30 01:37:16;;;;;;;3.60;1.93;;;13.10;68.80;;;;;;4995954;28;20097;-79
2021/04/30 01:39:42;;;;;;;3.00;2.00;;;13.10;68.90;;;;;;4995314;28;20041;-78
2021/04/30 01:42:08;;;;;;;2.50;2.20;;;13.10;69.00;;;;;;4997384;28;20081;-79
2021/04/30 01:44:34;;;;;;;2.43;1.47;;;13.10;69.10;;;;;;4997663;28;20033;-79
2021/04/30 01:47:00;;;;;;;3.80;2.10;;;13.10;69.10;;;;;;5012597;28;20026;-78
2021/04/30 01:49:26;;;;;;;4.20;1.80;;;13.10;69.00;;;;;;5015136;28;20431;-79
2021/04/30 01:51:52;;;;;;;5.10;2.00;;;13.10;69.10;;;;;;4996775;28;20108;-79
2021/04/30 01:54:18;;;;;;;4.23;2.70;;;13.00;69.10;;;;;;4992620;28;20497;-79
2021/04/30 01:56:44;;;;;;;2.77;2.13;;;13.00;69.10;;;;;;4993953;28;20037;-79
2021/04/30 01:59:10;;;;;;;3.40;1.97;;;13.00;69.10;;;;;;5013347;28;20482;-79
2021/04/30 02:01:36;;;;;;;4.70;2.83;;;13.00;68.90;;;;;;5013429;28;20509;-79
2021/04/30 02:04:04;;;;;;;4.57;2.90;;;13.00;68.90;;;;;;5012418;28;20071;-79
2021/04/30 02:06:29;;;;;;;3.43;2.93;;;13.00;69.20;;;;;;4996338;28;20033;-78
2021/04/30 02:08:56;;;;;;;5.03;2.80;;;12.90;69.40;;;;;;4995716;28;20084;-79
2021/04/30 02:11:22;;;;;;;2.00;1.77;;;12.90;69.70;;;;;;4997461;28;20473;-79
2021/04/30 02:13:47;;;;;;;2.60;1.87;;;12.90;69.70;;;;;;4995382;28;20026;-79
2021/04/30 02:16:13;;;;;;;4.67;2.70;;;13.00;69.70;;;;;;5014030;28;20102;-79
2021/04/30 02:18:39;;;;;;;4.73;2.70;;;12.90;69.60;;;;;;5013063;28;20030;-79
2021/04/30 02:21:04;;;;;;;3.67;2.63;;;12.90;69.70;;;;;;5014208;28;20018;-79
2021/04/30 02:23:30;;;;;;;2.40;1.23;;;12.90;69.80;;;;;;4985426;28;20023;-79
2021/04/30 02:25:56;;;;;;;2.63;1.73;;;12.90;69.80;;;;;;5008216;28;20109;-79
2021/04/30 02:28:22;;;;;;;2.77;1.50;;;12.90;69.70;;;;;;4996497;28;20241;-80
2021/04/30 02:30:48;;;;;;;6.10;1.47;;;12.90;69.70;;;;;;4995262;28;20049;-79
2021/04/30 02:33:13;;;;;;;2.50;1.20;;;12.90;69.60;;;;;;4999586;28;20033;-80
2021/04/30 02:35:44;;;;;;;2.40;1.40;;;12.90;69.60;;;;;;4996216;28;20026;-80
2021/04/30 02:38:11;;;;;;;4.60;1.87;;;12.90;70.10;;;;;;4982720;28;20494;-79
2021/04/30 02:40:39;;;;;;;4.57;2.13;;;12.90;69.60;;;;;;5003849;28;20026;-79
2021/04/30 02:43:07;;;;;;;3.33;2.60;;;12.90;69.60;;;;;;4982558;28;20389;-80
2021/04/30 02:45:33;;;;;;;4.47;3.30;;;12.90;69.90;;;;;;4996056;28;20022;-79
2021/04/30 02:48:00;;;;;;;4.37;2.83;;;12.90;70.00;;;;;;4992186;28;20022;-80
2021/04/30 02:50:28;;;;;;;3.47;3.03;;;12.90;70.10;;;;;;5008916;28;20048;-80
2021/04/30 02:52:54;;;;;;;3.93;3.40;;;12.90;70.10;;;;;;4987511;28;20026;-80
2021/04/30 02:55:23;;;;;;;5.73;5.03;;;12.80;70.30;;;;;;4995927;28;20022;-80
2021/04/30 02:57:55;;;;;;;7.37;4.23;;;12.80;70.40;;;;;;5013078;28;20037;-79
2021/04/30 03:00:24;;;;;;;5.85;3.63;;;12.80;70.50;;;;;;5007571;28;20030;-80
2021/04/30 03:02:50;;;;;;;4.80;3.70;;;12.80;70.60;;;;;;4994116;28;20026;-80
2021/04/30 03:05:17;;;;;;;4.67;3.87;;;12.80;70.60;;;;;;4994443;28;20022;-79
2021/04/30 03:07:43;;;;;;;4.93;3.73;;;12.70;70.80;;;;;;5012579;28;20100;-80
2021/04/30 03:10:09;;;;;;;6.47;3.83;;;12.80;71.00;;;;;;5009561;28;20030;-80
2021/04/30 03:12:35;;;;;;;3.67;3.33;;;12.80;71.20;;;;;;5007390;28;20030;-79
2021/04/30 03:15:02;;;;;;;4.20;3.43;;;12.80;71.30;;;;;;4994925;28;20124;-80
2021/04/30 03:17:29;;;;;;;4.80;3.23;;;12.80;71.30;;;;;;5012406;28;20541;-79
2021/04/30 03:19:56;;;;;;;7.43;3.40;;;12.80;71.30;;;;;;4996466;28;20036;-79
2021/04/30 03:22:21;;;;;;;4.47;3.67;;;12.80;71.30;;;;;;4996181;28;20045;-79
2021/04/30 03:24:47;;;;;;;6.07;3.77;;;12.70;71.40;;;;;;4987671;28;20022;-79
2021/04/30 03:27:13;;;;;;;6.30;3.30;;;12.70;71.50;;;;;;4996008;28;20022;-80
2021/04/30 03:29:39;;;;;;;4.17;3.20;;;12.70;71.80;;;;;;4991289;28;20121;-80
2021/04/30 03:32:07;;;;;;;2.57;2.03;;;12.80;71.70;;;;;;4995358;28;20025;-80
2021/04/30 03:34:36;;;;;;;4.50;2.07;;;12.70;71.60;;;;;;5003691;28;20026;-79
2021/04/30 03:37:03;;;;;;;3.73;2.37;;;12.80;71.60;;;;;;5012880;28;20505;-80
2021/04/30 03:39:29;;;;;;;3.37;1.43;;;12.80;71.40;;;;;;4995810;28;20022;-80
2021/04/30 03:41:55;;;;;;;5.20;2.17;;;12.70;71.10;;;;;;4993073;28;20033;-79
2021/04/30 03:44:20;;;;;;;2.23;1.80;;;12.70;71.10;;;;;;5012132;28;20029;-80
2021/04/30 03:46:46;;;;;;;5.77;2.30;;;12.70;71.10;;;;;;4994409;28;20030;-79
2021/04/30 03:49:12;;;;;;;4.27;2.50;;;12.70;71.10;;;;;;4994040;28;20522;-79
2021/04/30 03:51:37;;;;;;;4.83;2.40;;;12.70;71.10;;;;;;5012449;28;20037;-79
2021/04/30 03:54:03;;;;;;;4.80;2.30;;;12.70;71.10;;;;;;4995395;28;20038;-79
2021/04/30 03:56:29;;;;;;;3.20;2.20;;;12.70;71.20;;;;;;5011484;28;20026;-79
2021/04/30 03:58:55;;;;;;;3.40;2.37;;;12.60;71.40;;;;;;4993862;28;20591;-79
2021/04/30 04:01:21;;;;;;;3.63;2.70;;;12.60;71.40;;;;;;4987912;28;20361;-79
2021/04/30 04:03:46;;;;;;;5.43;3.00;;;12.50;71.50;;;;;;5018302;28;20054;-79
2021/04/30 04:06:12;;;;;;;4.07;2.57;;;12.50;71.70;;;;;;5028470;28;20042;-79
2021/04/30 04:08:38;;;;;;;3.93;3.20;;;12.50;71.70;;;;;;5001261;28;20026;-79
2021/04/30 04:11:04;;;;;;;5.97;2.70;;;12.60;71.80;;;;;;5021486;28;20021;-79
2021/04/30 04:13:29;;;;;;;4.17;3.20;;;12.50;71.60;;;;;;4994582;28;20026;-79
2021/04/30 04:16:02;;;;;;;5.10;3.87;;;12.60;71.80;;;;;;5011693;28;20033;-79
2021/04/30 04:18:29;;;;;;;7.17;4.67;;;12.60;71.90;;;;;;5000762;28;20095;-79
2021/04/30 04:20:58;;;;;;;8.13;4.47;;;12.60;72.00;;;;;;5020962;28;20108;-79
2021/04/30 04:23:24;;;;;;;6.70;4.73;;;12.60;72.20;;;;;;4994746;28;20057;-80
2021/04/30 04:25:51;;;;;;;5.93;3.37;;;12.60;72.20;;;;;;5012616;28;20494;-79
2021/04/30 04:28:17;;;;;;;3.93;3.17;;;12.60;72.20;;;;;;5002546;28;20041;-80
2021/04/30 04:30:43;;;;;;;4.03;3.30;;;12.50;72.10;;;;;;5013704;28;20054;-80
2021/04/30 04:33:09;;;;;;;5.40;4.73;;;12.60;72.40;;;;;;5021664;28;20334;-80
2021/04/30 04:35:39;;;;;;;8.83;5.93;;;12.60;72.40;;;;;;5011758;28;20041;-79
2021/04/30 04:38:04;;;;;;;8.67;6.40;;;12.60;72.40;;;;;;4988080;28;20022;-80
2021/04/30 04:40:30;;;;;;;7.80;5.07;;;12.50;72.40;;;;;;5003146;28;20029;-80
2021/04/30 04:42:56;;;;;;;8.37;4.50;;;12.50;72.50;;;;;;5003970;28;20080;-80
2021/04/30 04:45:22;;;;;;;5.67;4.10;;;12.50;72.40;;;;;;5001572;28;20026;-80
2021/04/30 04:47:48;;;;;;;5.63;4.33;;;12.50;72.40;;;;;;4986140;28;20030;-80
2021/04/30 04:50:14;;;;;;;7.67;4.70;;;12.40;72.30;;;;;;4994979;28;20385;-80
2021/04/30 04:52:40;;;;;;;3.27;2.87;;;12.50;72.40;;;;;;5012012;28;20037;-80
2021/04/30 04:55:09;;;;;;;3.90;2.63;;;12.60;72.30;;;;;;4998951;28;20359;-80
2021/04/30 04:57:35;;;;;;;3.37;2.80;;;12.60;72.00;;;;;;4998765;28;20108;-80
2021/04/30 05:00:01;;;;;;;4.30;3.87;;;12.60;71.80;;;;;;4992865;28;20018;-80
2021/04/30 05:02:26;;;;;;;3.80;3.00;;;12.60;71.80;;;;;;4984509;28;20389;-80
2021/04/30 05:04:52;;;;;;;5.50;4.27;;;12.70;71.70;;;;;;5011553;28;20110;-80
2021/04/30 05:07:19;;;;;;;4.83;3.70;;;12.60;71.60;;;;;;4995481;28;20113;-80
2021/04/30 05:09:45;;;;;;;5.70;4.37;;;12.60;71.80;;;;;;4995663;28;20486;-80
2021/04/30 05:12:12;;;;;;;6.20;4.73;;;12.60;71.80;;;;;;5012494;28;20018;-80
2021/04/30 05:14:37;;;;;;;5.57;4.40;;;12.50;72.10;;;;;;5011535;28;20014;-80
2021/04/30 05:17:03;;;;;;;5.20;4.57;;;12.50;72.30;;;;;;4994066;28;20080;-80
2021/04/30 05:19:29;;;;;;;6.60;5.30;;;12.60;72.50;;;;;;5010498;28;20026;-80
2021/04/30 05:21:55;;;;;;;7.50;6.53;;;12.70;72.30;;;;;;4994675;28;20028;-80
2021/04/30 05:24:20;;;;;;;13.43;9.80;;;12.80;72.10;;;;;;4993433;28;20038;-79
2021/04/30 05:26:46;;;;;;;15.90;11.00;;;12.80;71.90;;;;;;4994891;28;20022;-80
2021/04/30 05:29:14;;;;;;;12.53;11.17;;;12.90;71.80;;;;;;4992165;28;20504;-80
2021/04/30 05:31:40;;;;;;;16.53;12.03;;;12.90;72.40;;;;;;4994691;28;20042;-80
2021/04/30 05:34:06;;;;;;;15.03;12.13;;;12.90;72.40;;;;;;5015502;28;20037;-80
2021/04/30 05:36:31;;;;;;;14.10;11.40;;;13.00;71.90;;;;;;5013600;28;20062;-80
2021/04/30 05:38:57;;;;;;;12.73;10.30;;;13.00;72.40;;;;;;4997318;28;20041;-80
2021/04/30 05:41:23;;;;;;;12.30;9.93;;;13.10;71.80;;;;;;5015240;28;20026;-80
2021/04/30 05:43:49;;;;;;;12.17;8.77;;;13.10;71.80;;;;;;4997765;28;20036;-80
2021/04/30 05:46:15;;;;;;;9.83;8.37;;;13.10;71.80;;;;;;5008273;28;20037;-80
2021/04/30 05:48:40;;;;;;;13.20;9.50;;;13.10;71.70;;;;;;4996183;28;20034;-80
2021/04/30 05:51:20;;;;;;;12.20;8.90;;;13.20;71.60;;;;;;4997034;28;20096;-80
2021/04/30 05:53:50;;;;;;;10.60;9.50;;;13.20;71.70;;;;;;5010629;28;20034;-80
2021/04/30 05:56:15;;;;;;;14.23;9.73;;;13.20;71.50;;;;;;5006116;28;20445;-80
2021/04/30 05:58:41;;;;;;;11.60;10.10;;;13.20;71.40;;;;;;5010307;28;20029;-80
2021/04/30 06:01:07;;;;;;;10.83;9.53;;;13.30;71.40;;;;;;4994428;28;20049;-80
2021/04/30 06:03:32;;;;;;;12.40;11.00;;;13.30;71.40;;;;;;4998139;28;20029;-81
2021/04/30 06:05:58;;;;;;;10.93;9.83;;;13.30;71.40;;;;;;5014542;28;20076;-80
2021/04/30 06:08:24;;;;;;;11.27;9.90;;;13.30;71.40;;;;;;4996229;28;20394;-79
2021/04/30 06:10:49;;;;;;;11.63;9.40;;;13.30;71.10;;;;;;4998050;28;20139;-80
2021/04/30 06:13:15;;;;;;;10.97;9.80;;;13.30;71.20;;;;;;4997361;28;20030;-80
2021/04/30 06:15:41;;;;;;;12.87;9.70;;;13.40;71.20;;;;;;5007625;28;21925;-80
2021/04/30 06:18:07;;;;;;;19.40;9.93;;;13.40;71.00;;;;;;4994018;28;20022;-80
2021/04/30 06:20:32;;;;;;;13.20;10.07;;;13.40;71.20;;;;;;4995146;28;20060;-80
2021/04/30 06:22:58;;;;;;;10.00;8.87;;;13.50;71.30;;;;;;4997048;28;20401;-80
2021/04/30 06:25:24;;;;;;;10.93;7.77;;;13.60;71.30;;;;;;5014867;28;20018;-80
2021/04/30 06:27:49;;;;;;;9.77;7.93;;;13.60;71.00;;;;;;4996039;28;20490;-80
2021/04/30 06:30:15;;;;;;;9.13;7.27;;;13.60;71.00;;;;;;4993622;28;20177;-80
2021/04/30 06:32:43;;;;;;;8.13;7.33;;;13.70;70.80;;;;;;4995018;28;20029;-80
2021/04/30 06:35:10;;;;;;;9.40;7.50;;;13.70;70.80;;;;;;4990429;28;20027;-80
2021/04/30 06:37:37;;;;;;;8.77;7.60;;;13.70;70.60;;;;;;4989752;28;20026;-80
2021/04/30 06:40:20;;;;;;;10.40;7.20;;;13.60;70.60;;;;;;4987807;28;20049;-80
2021/04/30 06:42:46;;;;;;;;;;;13.70;70.90;;;;;;5000099;28;20124;-81
2021/04/30 06:45:13;;;;;;;9.90;6.90;;;13.70;70.60;;;;;;4984121;28;20026;-80
2021/04/30 06:47:39;;;;;;;7.40;6.70;;;13.80;70.50;;;;;;4978038;28;20033;-81
2021/04/30 06:50:05;;;;;;;8.60;7.00;;;13.90;70.40;;;;;;4992366;28;20034;-80
2021/04/30 06:52:32;;;;;;;8.03;6.03;;;14.00;70.40;;;;;;4992740;28;20030;-81
2021/04/30 06:54:58;;;;;;;7.27;6.13;;;14.10;70.20;;;;;;4989362;28;20034;-80
2021/04/30 06:57:24;;;;;;;8.63;6.57;;;14.10;69.80;;;;;;4984495;28;20027;-79
2021/04/30 06:59:50;;;;;;;9.87;6.10;;;14.20;69.60;;;;;;4990626;28;20022;-80
2021/04/30 07:02:34;;;;;;;7.40;5.57;;;14.10;69.40;;;;;;4994151;28;20438;-79
2021/04/30 07:05:00;;;;;;;7.93;6.20;;;14.20;69.30;;;;;;4992899;28;20030;-79
2021/04/30 07:07:26;;;;;;;6.50;5.80;;;14.30;69.20;;;;;;4992644;28;20022;-79
2021/04/30 07:09:52;;;;;;;10.30;6.57;;;14.40;69.20;;;;;;4993298;28;20391;-79
2021/04/30 07:12:19;;;;;;;6.77;6.07;;;14.60;68.90;;;;;;4991905;28;20030;-79
2021/04/30 07:14:46;;;;;;;6.10;5.50;;;14.60;68.50;;;;;;4981389;28;20076;-79
2021/04/30 07:17:12;;;;;;;8.17;6.00;;;14.60;68.20;;;;;;4991317;28;20483;-79
2021/04/30 07:19:38;;;;;;;7.33;5.90;;;14.50;67.90;;;;;;4994174;28;20634;-79
2021/04/30 07:22:09;;;;;;;7.67;5.87;;;14.50;68.10;;;;;;4993130;28;20029;-79
2021/04/30 07:24:35;;;;;;;7.67;5.43;;;14.50;68.10;;;;;;4994243;28;20049;-79
2021/04/30 07:27:00;;;;;;;7.27;5.80;;;14.60;68.30;;;;;;4990296;28;20621;-79
2021/04/30 07:29:26;;;;;;;6.83;4.90;;;14.90;68.10;;;;;;4992129;28;20082;-79
2021/04/30 07:31:55;;;;;;;4.93;4.37;;;15.10;67.40;;;;;;4991089;28;20049;-79
2021/04/30 07:34:20;;;;;;;7.57;5.10;;;15.20;67.30;;;;;;4992070;28;20030;-79
2021/04/30 07:36:46;;;;;;;5.40;4.47;;;15.40;67.00;;;;;;4992573;28;20892;-79
2021/04/30 07:39:12;;;;;;;6.43;4.60;;;15.50;66.20;;;;;;4989869;28;20026;-79
2021/04/30 07:41:37;;;;;;;6.70;4.10;;;15.60;65.90;;;;;;4978859;28;20227;-80
2021/04/30 07:44:03;;;;;;;4.47;4.00;;;15.60;65.80;;;;;;4990656;28;20494;-80
2021/04/30 07:46:29;;;;;;;4.20;3.80;;;15.80;65.60;;;;;;4990080;28;20041;-80
2021/04/30 07:48:55;;;;;;;5.60;3.55;;;15.90;65.10;;;;;;4991055;28;20058;-79
2021/04/30 07:51:20;;;;;;;3.20;2.60;;;15.90;64.60;;;;;;4988212;28;20495;-79
2021/04/30 07:53:46;;;;;;;2.50;2.25;;;16.00;64.30;;;;;;4989334;28;20026;-79
2021/04/30 07:56:13;;;;;;;3.40;2.90;;;16.00;63.90;;;;;;4990499;28;20034;-79
2021/04/30 07:58:38;;;;;;;4.00;3.15;;;16.10;63.40;;;;;;4991900;28;20112;-79
2021/04/30 08:01:04;;;;;;;3.40;3.05;;;16.20;63.20;;;;;;4992007;28;20066;-80
2021/04/30 08:03:32;;;;;;;4.68;3.78;;;16.30;62.90;;;;;;4992299;28;20026;-79
2021/04/30 08:05:58;;;;;;;4.55;2.45;;;16.40;62.50;;;;;;4983644;28;20060;-79
2021/04/30 08:08:23;;;;;;;5.25;2.53;;;16.40;62.10;;;;;;4990414;28;20030;-80
2021/04/30 08:10:49;;;;;;;2.38;1.67;;;16.50;61.80;;;;;;4992770;28;20049;-81
2021/04/30 08:13:19;;;;;;;3.90;1.60;;;16.60;60.60;;;;;;4993909;28;20054;-80
2021/04/30 08:15:45;;;;;;;2.22;1.70;;;16.60;60.00;;;;;;4974311;28;20084;-79
2021/04/30 08:18:10;;;;;;;3.35;1.45;;;16.70;59.80;;;;;;4996546;28;20457;-80
2021/04/30 08:20:36;;;;;;;1.38;0.90;;;16.70;59.70;;;;;;4980235;28;20101;-80
2021/04/30 08:23:03;;;;;;;1.65;0.95;;;16.80;59.50;;;;;;4983808;28;20027;-79
2021/04/30 08:25:29;;;;;;;1.63;0.82;;;16.90;59.10;;;;;;4991122;28;20088;-80
2021/04/30 08:27:56;;;;;;;3.10;0.82;;;17.00;58.60;;;;;;4987454;28;20022;-80
2021/04/30 08:30:22;;;;;;;6.10;1.00;;;17.10;58.50;;;;;;4989440;28;20050;-79
2021/04/30 08:32:49;;;;;;;2.67;1.05;;;17.30;58.00;;;;;;5007248;28;20062;-80
2021/04/30 08:35:15;;;;;;;1.98;0.70;;;17.50;57.10;;;;;;4992125;28;20035;-80
2021/04/30 08:37:40;;;;;;;0.80;0.68;;;17.70;56.70;;;;;;4988415;28;20030;-80
2021/04/30 08:40:07;;;;;;;3.47;0.90;;;17.80;55.90;;;;;;4989467;28;20034;-79
2021/04/30 08:42:33;;;;;;;2.88;0.80;;;17.90;55.80;;;;;;4991477;28;20026;-79
2021/04/30 08:45:00;;;;;;;1.15;0.98;;;17.90;55.70;;;;;;4993325;28;20034;-79
2021/04/30 08:47:26;;;;;;;1.77;0.98;;;18.10;55.40;;;;;;4972875;28;20059;-80
2021/04/30 08:49:56;;;;;;;2.28;0.90;;;18.30;55.20;;;;;;4988666;28;20050;-80
2021/04/30 08:52:23;;;;;;;1.05;0.95;;;18.40;54.60;;;;;;4990836;28;20088;-80
2021/04/30 08:54:52;;;;;;;1.38;0.70;;;18.60;54.40;;;;;;4992564;28;20114;-80
2021/04/30 08:57:24;;;;;;;1.08;0.85;;;18.70;53.90;;;;;;4992497;28;20609;-80
2021/04/30 08:59:55;;;;;;;2.28;0.80;;;18.90;53.30;;;;;;4988922;28;20031;-80
2021/04/30 09:02:24;;;;;;;0.60;0.52;;;19.00;52.40;;;;;;4991596;28;20038;-80
2021/04/30 09:04:49;;;;;;;1.35;0.80;;;18.90;52.20;;;;;;4991965;28;20054;-80
2021/04/30 09:07:19;;;;;;;1.48;0.70;;;19.00;51.90;;;;;;4989446;28;20031;-80
2021/04/30 09:10:06;;;;;;;1.88;0.70;;;19.20;51.80;;;;;;4994873;28;20034;-80
2021/04/30 09:12:33;;;;;;;1.60;0.80;;;19.20;51.40;;;;;;4994930;28;20022;-79
2021/04/30 09:14:59;;;;;;;1.48;0.70;;;19.30;51.40;;;;;;4995068;28;20054;-79
2021/04/30 09:17:29;;;;;;;0.80;0.55;;;19.30;51.20;;;;;;4988698;28;20037;-79
2021/04/30 09:20:01;;;;;;;0.50;0.30;;;19.40;50.70;;;;;;4991704;28;20380;-80
2021/04/30 09:22:31;;;;;;;0.55;0.55;;;19.50;50.00;;;;;;5011511;28;20500;-80
2021/04/30 09:25:05;;;;;;;1.45;0.50;;;19.50;49.50;;;;;;5013334;28;20069;-80
2021/04/30 09:27:34;;;;;;;3.15;0.35;;;19.60;49.30;;;;;;4995393;28;20035;-79
2021/04/30 09:30:25;;;;;;;0.63;0.50;;;19.70;48.90;;;;;;4982808;28;20046;-79
2021/04/30 09:33:10;;;;;;;2.25;0.60;;;19.60;47.90;;;;;;4984759;28;20113;-80
2021/04/30 09:35:45;;;;;;;1.10;0.43;;;19.60;47.90;;;;;;4995006;28;20392;-80
2021/04/30 09:38:16;;;;;;;0.40;0.35;;;19.80;48.10;;;;;;4994971;28;20053;-80
2021/04/30 09:40:42;;;;;;;0.60;0.45;;;19.90;48.10;;;;;;4994889;28;20499;-80
2021/04/30 09:43:09;;;;;;;5.15;0.60;;;20.00;47.90;;;;;;4993408;28;20029;-79
2021/04/30 09:45:35;;;;;;;0.65;0.50;;;20.10;47.70;;;;;;4996215;28;20031;-79
2021/04/30 09:48:05;;;;;;;0.93;0.50;;;20.20;47.70;;;;;;4994881;28;20092;-79
2021/04/30 09:50:33;;;;;;;0.75;0.60;;;20.30;47.30;;;;;;4993789;28;20122;-80
2021/04/30 09:53:04;;;;;;;2.42;0.50;;;20.30;47.30;;;;;;4993226;28;20034;-80
2021/04/30 09:55:47;;;;;;;3.97;0.70;;;20.40;47.20;;;;;;4994576;28;20386;-80
2021/04/30 09:58:26;;;;;;;2.00;0.80;;;20.50;47.20;;;;;;4993106;28;20113;-79
2021/04/30 10:00:54;;;;;;;1.75;0.70;;;20.60;47.40;;;;;;4990661;28;20026;-80
2021/04/30 10:03:26;;;;;;;33.67;11.07;;;20.70;47.30;;;;;;4994425;28;20019;-80
2021/04/30 10:06:12;;;;;;;15.65;4.07;;;20.80;46.80;;;;;;4989487;28;20134;-80
2021/04/30 10:08:40;;;;;;;7.30;2.90;;;20.90;46.70;;;;;;4989326;28;20031;-79
2021/04/30 10:11:30;;;;;;;6.95;1.92;;;21.00;46.80;;;;;;4989452;28;20113;-80
2021/04/30 10:13:56;;;;;;;7.05;1.88;;;21.00;46.50;;;;;;4988632;28;20494;-80
2021/04/30 10:16:22;;;;;;;4.35;2.20;;;21.10;46.60;;;;;;4986115;28;20042;-80
2021/04/30 10:18:47;;;;;;;4.45;1.55;;;21.10;46.30;;;;;;4984347;28;20412;-80
2021/04/30 10:21:14;;;;;;;4.18;2.10;;;21.20;46.40;;;;;;4985755;28;20018;-80
2021/04/30 10:23:51;;;;;;;7.40;2.25;;;21.20;46.00;;;;;;4988804;28;20046;-80
2021/04/30 10:26:19;;;;;;;7.40;1.85;;;21.10;45.90;;;;;;4988698;28;22375;-80
2021/04/30 10:28:52;;;;;;;4.18;1.77;;;21.00;45.80;;;;;;4994254;28;20033;-80
2021/04/30 10:31:34;;;;;;;5.25;1.88;;;21.00;45.50;;;;;;5013542;28;20073;-80
2021/04/30 10:34:16;;;;;;;9.20;2.00;;;21.10;45.70;;;;;;4996897;28;20053;-80
2021/04/30 10:36:50;;;;;;;5.18;1.58;;;21.20;45.80;;;;;;4997221;28;20034;-80
2021/04/30 10:39:32;;;;;;;4.38;2.25;;;21.20;45.60;;;;;;4997051;28;20022;-80
2021/04/30 10:42:07;;;;;;;3.65;1.40;;;21.20;45.40;;;;;;5014520;28;20458;-80
2021/04/30 10:44:33;;;;;;;2.95;1.40;;;21.20;45.60;;;;;;4995544;28;20546;-80
2021/04/30 10:47:09;;;;;;;2.92;1.08;;;21.30;45.60;;;;;;4996860;28;20160;-80
2021/04/30 10:49:35;;;;;;;3.42;1.80;;;21.40;45.40;;;;;;4995984;28;20058;-80
2021/04/30 10:52:07;;;;;;;3.67;1.30;;;21.50;45.30;;;;;;5013353;28;20026;-80
2021/04/30 10:54:33;;;;;;;3.38;0.93;;;21.60;45.10;;;;;;4995720;28;20490;-80
2021/04/30 10:57:01;;;;;;;1.63;0.88;;;21.60;45.00;;;;;;4996805;28;20025;-80
2021/04/30 10:59:52;;;;;;;1.73;1.13;;;21.70;44.70;;;;;;5004758;28;20033;-80
2021/04/30 11:02:32;;;;;;;1.45;0.93;;;21.80;44.30;;;;;;5014128;28;20028;-80
2021/04/30 11:07:47;;;;;;;5.93;1.58;;;21.90;44.30;;;;;;5013423;28;20060;-80
2021/04/30 11:13:10;;;;;;;6.65;1.48;;;22.00;43.70;;;;;;5005782;28;20026;-80
2021/04/30 11:15:45;;;;;;;3.90;1.55;;;22.00;44.20;;;;;;4992120;28;20064;-80
2021/04/30 11:18:25;;;;;;;3.17;2.10;;;22.00;44.20;;;;;;4996417;28;20072;-80
2021/04/30 11:21:09;;;;;;;2.45;1.40;;;22.10;44.20;;;;;;5008881;28;20018;-80
2021/04/30 11:23:40;;;;;;;3.63;1.50;;;22.20;43.70;;;;;;4994770;28;20030;-80
2021/04/30 11:26:08;;;;;;;4.13;1.58;;;22.30;43.80;;;;;;5002899;28;20153;-79
2021/04/30 11:28:34;;;;;;;2.80;1.33;;;22.30;43.80;;;;;;5020489;28;20033;-79
2021/04/30 11:31:26;;;;;;;3.25;2.13;;;22.30;44.00;;;;;;5011438;28;20104;-80
2021/04/30 11:34:15;;;;;;;3.72;1.83;;;22.50;43.60;;;;;;4996498;28;20025;-80
2021/04/30 11:36:42;;;;;;;3.85;1.55;;;22.40;43.70;;;;;;5013250;28;20022;-79
2021/04/30 11:39:14;;;;;;;3.55;1.70;;;22.50;43.80;;;;;;4995022;28;20032;-79
2021/04/30 11:41:41;;;;;;;2.40;1.70;;;22.60;43.60;;;;;;4996121;28;20508;-79
2021/04/30 11:44:08;;;;;;;3.00;1.52;;;22.60;43.50;;;;;;5013853;28;20386;-80
2021/04/30 11:46:33;;;;;;;1.63;1.40;;;22.60;43.70;;;;;;4995759;28;20080;-79
2021/04/30 11:49:03;;;;;;;2.38;1.70;;;22.60;44.00;;;;;;4995644;28;20482;-80
2021/04/30 11:51:29;;;;;;;2.42;1.42;;;22.70;44.00;;;;;;4996184;28;20030;-80
2021/04/30 11:53:56;;;;;;;1.45;1.30;;;22.70;43.80;;;;;;5025769;28;20079;-79
2021/04/30 11:56:30;;;;;;;4.05;1.73;;;22.80;44.20;;;;;;5021658;28;20029;-80
2021/04/30 11:58:57;;;;;;;3.22;1.50;;;22.80;44.80;;;;;;4996205;28;20509;-80
2021/04/30 12:01:28;;;;;;;1.45;1.25;;;22.80;44.50;;;;;;4994227;28;20026;-80
2021/04/30 12:03:55;;;;;;;2.28;1.40;;;22.80;44.30;;;;;;4987780;28;20035;-80
2021/04/30 12:06:23;;;;;;;3.03;1.48;;;22.70;44.20;;;;;;4981824;28;20045;-80
2021/04/30 12:08:51;;;;;;;3.13;1.33;;;22.80;43.70;;;;;;5002164;28;20449;-79
2021/04/30 12:11:35;;;;;;;2.05;1.15;;;22.70;43.60;;;;;;4976384;28;20035;-79
2021/04/30 12:14:06;;;;;;;4.45;0.95;;;22.70;44.20;;;;;;4982744;28;20026;-79
2021/04/30 12:16:32;;;;;;;1.60;1.20;;;22.70;44.10;;;;;;4993057;28;20061;-80
2021/04/30 12:18:58;;;;;;;1.85;1.23;;;22.70;43.90;;;;;;4989902;28;20033;-79
2021/04/30 12:21:25;;;;;;;6.88;1.20;;;22.80;44.20;;;;;;4995191;28;20030;-79
2021/04/30 12:23:52;;;;;;;3.00;1.15;;;22.80;44.00;;;;;;4992830;28;20038;-79
2021/04/30 12:26:27;;;;;;;2.85;1.42;;;22.90;43.90;;;;;;5011713;28;20645;-79
2021/04/30 12:28:56;;;;;;;5.90;1.20;;;22.90;43.60;;;;;;5013198;28;20037;-80
2021/04/30 12:31:23;;;;;;;1.30;1.10;;;22.80;43.70;;;;;;4993180;28;20046;-82
2021/04/30 12:33:50;;;;;;;4.47;1.42;;;22.80;43.70;;;;;;5006094;28;20030;-82
2021/04/30 12:36:27;;;;;;;2.45;1.20;;;22.80;43.60;;;;;;4993286;28;20061;-82
2021/04/30 12:38:56;;;;;;;1.60;1.27;;;22.80;43.50;;;;;;4993534;28;20121;-82
2021/04/30 12:41:23;;;;;;;4.07;1.42;;;22.80;43.50;;;;;;4997113;28;20029;-82
2021/04/30 12:43:50;;;;;;;3.55;1.30;;;22.80;43.40;;;;;;4996243;28;20030;-82
2021/04/30 12:46:17;;;;;;;5.22;0.98;;;22.90;43.70;;;;;;4998841;28;20482;-82
2021/04/30 12:48:48;;;;;;;3.83;1.10;;;22.90;44.20;;;;;;4999057;28;20037;-82
2021/04/30 12:51:26;;;;;;;2.63;1.52;;;23.00;44.30;;;;;;5016026;28;20180;-82
2021/04/30 12:53:52;;;;;;;3.83;1.30;;;23.00;43.80;;;;;;4998703;28;20030;-83
2021/04/30 12:56:31;;;;;;;2.42;1.20;;;23.00;44.10;;;;;;4998643;28;20040;-82